sensor_id;sensor_type;location;lat;lon;timestamp;pressure;altitude;pressure_sealevel;temperature;humidity
58967;BME280;44744;51.894;5.080;2024-03-02T00:03:50;99956.98;;;7.32;82.43
58967;BME280;44744;51.894;5.080;2024-03-02T00:08:50;99963.84;;;7.16;83.32
58967;BME280;44744;51.894;5.080;2024-03-02T00:13:53;99969.91;;;6.98;84.06
58967;BME280;44744;51.894;5.080;2024-03-02T00:18:54;99963.88;;;6.82;84.78
58967;BME280;44744;51.894;5.080;2024-03-02T00:23:57;99964.86;;;6.74;85.22
58967;BME280;44744;51.894;5.080;2024-03-02T00:28:58;99972.81;;;6.66;86.19
58967;BME280;44744;51.894;5.080;2024-03-02T00:34:00;99978.21;;;6.60;86.76
58967;BME280;44744;51.894;5.080;2024-03-02T00:39:03;99970.06;;;6.55;87.33
58967;BME280;44744;51.894;5.080;2024-03-02T00:44:04;99965.23;;;6.49;88.00
58967;BME280;44744;51.894;5.080;2024-03-02T00:54:08;99968.73;;;6.40;89.25
58967;BME280;44744;51.894;5.080;2024-03-02T00:59:10;99963.02;;;6.35;90.04
58967;BME280;44744;51.894;5.080;2024-03-02T01:04:10;99969.85;;;6.32;90.22
58967;BME280;44744;51.894;5.080;2024-03-02T01:09:12;99975.14;;;6.28;90.65
58967;BME280;44744;51.894;5.080;2024-03-02T01:14:17;99977.24;;;6.24;90.86
58967;BME280;44744;51.894;5.080;2024-03-02T01:19:18;99976.52;;;6.21;91.21
58967;BME280;44744;51.894;5.080;2024-03-02T01:24:19;99985.73;;;6.19;91.42
58967;BME280;44744;51.894;5.080;2024-03-02T01:29:19;99997.99;;;6.17;91.61
58967;BME280;44744;51.894;5.080;2024-03-02T01:34:19;100001.56;;;6.16;91.72
58967;BME280;44744;51.894;5.080;2024-03-02T01:39:20;100013.65;;;6.12;91.97
58967;BME280;44744;51.894;5.080;2024-03-02T01:44:21;100016.70;;;6.11;92.32
58967;BME280;44744;51.894;5.080;2024-03-02T01:49:21;100009.75;;;6.09;92.35
58967;BME280;44744;51.894;5.080;2024-03-02T01:54:22;100006.13;;;6.08;92.47
58967;BME280;44744;51.894;5.080;2024-03-02T01:59:22;100013.91;;;6.07;92.80
58967;BME280;44744;51.894;5.080;2024-03-02T02:04:23;100029.13;;;6.05;92.97
58967;BME280;44744;51.894;5.080;2024-03-02T02:09:27;100016.38;;;6.03;93.15
58967;BME280;44744;51.894;5.080;2024-03-02T02:14:28;100006.67;;;6.01;93.43
58967;BME280;44744;51.894;5.080;2024-03-02T02:19:29;99994.96;;;6.00;93.43
58967;BME280;44744;51.894;5.080;2024-03-02T02:24:29;100011.89;;;5.98;93.91
58967;BME280;44744;51.894;5.080;2024-03-02T02:29:29;100011.06;;;5.97;94.30
58967;BME280;44744;51.894;5.080;2024-03-02T02:34:30;100006.67;;;5.93;94.22
58967;BME280;44744;51.894;5.080;2024-03-02T02:39:30;100015.62;;;5.93;94.34
58967;BME280;44744;51.894;5.080;2024-03-02T02:44:30;100019.80;;;5.90;94.42
58967;BME280;44744;51.894;5.080;2024-03-02T02:49:31;100013.94;;;5.88;94.55
58967;BME280;44744;51.894;5.080;2024-03-02T02:54:31;100008.02;;;5.87;94.42
58967;BME280;44744;51.894;5.080;2024-03-02T02:59:32;100006.20;;;5.85;94.44
58967;BME280;44744;51.894;5.080;2024-03-02T03:04:32;100007.38;;;5.82;94.39
58967;BME280;44744;51.894;5.080;2024-03-02T03:09:32;100006.80;;;5.79;94.23
58967;BME280;44744;51.894;5.080;2024-03-02T03:14:33;100010.05;;;5.77;94.22
58967;BME280;44744;51.894;5.080;2024-03-02T03:19:33;100011.83;;;5.77;94.21
58967;BME280;44744;51.894;5.080;2024-03-02T03:24:36;100018.36;;;5.76;94.44
58967;BME280;44744;51.894;5.080;2024-03-02T03:29:37;100018.03;;;5.76;94.53
58967;BME280;44744;51.894;5.080;2024-03-02T03:34:37;100018.73;;;5.75;94.64
58967;BME280;44744;51.894;5.080;2024-03-02T03:39:38;100027.83;;;5.76;94.67
58967;BME280;44744;51.894;5.080;2024-03-02T03:44:38;100036.70;;;5.77;94.87
58967;BME280;44744;51.894;5.080;2024-03-02T03:49:40;100038.08;;;5.78;94.83
58967;BME280;44744;51.894;5.080;2024-03-02T03:54:41;100040.02;;;5.78;94.79
58967;BME280;44744;51.894;5.080;2024-03-02T03:59:43;100043.19;;;5.78;94.79
58967;BME280;44744;51.894;5.080;2024-03-02T04:04:44;100040.45;;;5.76;94.78
58967;BME280;44744;51.894;5.080;2024-03-02T04:09:45;100037.91;;;5.75;94.74
58967;BME280;44744;51.894;5.080;2024-03-02T04:14:45;100041.82;;;5.74;94.75
58967;BME280;44744;51.894;5.080;2024-03-02T04:19:45;100040.34;;;5.71;94.62
58967;BME280;44744;51.894;5.080;2024-03-02T04:24:46;100035.04;;;5.69;94.45
58967;BME280;44744;51.894;5.080;2024-03-02T04:29:48;100031.88;;;5.65;94.46
58967;BME280;44744;51.894;5.080;2024-03-02T04:34:49;100034.05;;;5.59;94.60
58967;BME280;44744;51.894;5.080;2024-03-02T04:39:50;100037.17;;;5.57;94.53
58967;BME280;44744;51.894;5.080;2024-03-02T04:44:50;100044.00;;;5.53;94.53
58967;BME280;44744;51.894;5.080;2024-03-02T04:49:50;100042.77;;;5.50;94.78
58967;BME280;44744;51.894;5.080;2024-03-02T04:54:51;100056.17;;;5.48;94.77
58967;BME280;44744;51.894;5.080;2024-03-02T05:00:10;100064.48;;;5.46;94.89
58967;BME280;44744;51.894;5.080;2024-03-02T05:05:11;100073.61;;;5.46;94.97
58967;BME280;44744;51.894;5.080;2024-03-02T05:10:11;100074.07;;;5.44;94.87
58967;BME280;44744;51.894;5.080;2024-03-02T05:15:13;100080.42;;;5.43;94.78
58967;BME280;44744;51.894;5.080;2024-03-02T05:20:14;100080.92;;;5.39;94.63
58967;BME280;44744;51.894;5.080;2024-03-02T05:25:14;100082.91;;;5.38;94.53
58967;BME280;44744;51.894;5.080;2024-03-02T05:30:14;100086.61;;;5.38;94.42
58967;BME280;44744;51.894;5.080;2024-03-02T05:35:17;100091.80;;;5.39;94.41
58967;BME280;44744;51.894;5.080;2024-03-02T05:40:18;100095.92;;;5.41;94.41
58967;BME280;44744;51.894;5.080;2024-03-02T05:45:19;100096.06;;;5.42;94.25
58967;BME280;44744;51.894;5.080;2024-03-02T05:50:19;100102.91;;;5.42;94.05
58967;BME280;44744;51.894;5.080;2024-03-02T05:55:20;100108.43;;;5.40;94.03
58967;BME280;44744;51.894;5.080;2024-03-02T06:00:20;100106.58;;;5.39;94.07
58967;BME280;44744;51.894;5.080;2024-03-02T06:05:21;100111.55;;;5.37;93.78
58967;BME280;44744;51.894;5.080;2024-03-02T06:10:21;100113.40;;;5.35;93.76
58967;BME280;44744;51.894;5.080;2024-03-02T06:15:22;100113.89;;;5.32;93.51
58967;BME280;44744;51.894;5.080;2024-03-02T06:20:22;100120.11;;;5.30;93.41
58967;BME280;44744;51.894;5.080;2024-03-02T06:25:22;100124.75;;;5.28;93.38
58967;BME280;44744;51.894;5.080;2024-03-02T06:30:23;100127.42;;;5.27;93.08
58967;BME280;44744;51.894;5.080;2024-03-02T06:35:24;100131.28;;;5.27;93.01
58967;BME280;44744;51.894;5.080;2024-03-02T06:40:24;100139.02;;;5.26;93.01
58967;BME280;44744;51.894;5.080;2024-03-02T06:45:24;100136.19;;;5.27;92.90
58967;BME280;44744;51.894;5.080;2024-03-02T06:50:25;100138.41;;;5.28;92.82
58967;BME280;44744;51.894;5.080;2024-03-02T06:55:25;100139.58;;;5.30;92.81
58967;BME280;44744;51.894;5.080;2024-03-02T07:00:26;100139.88;;;5.31;92.63
58967;BME280;44744;51.894;5.080;2024-03-02T07:05:26;100141.95;;;5.32;92.51
58967;BME280;44744;51.894;5.080;2024-03-02T07:10:27;100147.77;;;5.35;92.40
58967;BME280;44744;51.894;5.080;2024-03-02T07:15:28;100155.68;;;5.38;92.15
58967;BME280;44744;51.894;5.080;2024-03-02T07:20:28;100159.27;;;5.41;92.19
58967;BME280;44744;51.894;5.080;2024-03-02T07:25:29;100161.45;;;5.43;92.04
58967;BME280;44744;51.894;5.080;2024-03-02T07:30:30;100165.40;;;5.44;91.75
58967;BME280;44744;51.894;5.080;2024-03-02T07:35:32;100173.22;;;5.46;91.83
58967;BME280;44744;51.894;5.080;2024-03-02T07:40:33;100177.56;;;5.47;91.70
58967;BME280;44744;51.894;5.080;2024-03-02T07:45:34;100180.67;;;5.48;91.64
58967;BME280;44744;51.894;5.080;2024-03-02T07:50:36;100183.12;;;5.49;91.60
58967;BME280;44744;51.894;5.080;2024-03-02T07:55:43;100186.42;;;5.49;91.67
58967;BME280;44744;51.894;5.080;2024-03-02T08:00:46;100187.48;;;5.50;91.35
58967;BME280;44744;51.894;5.080;2024-03-02T08:05:47;100188.40;;;5.52;91.43
58967;BME280;44744;51.894;5.080;2024-03-02T08:10:47;100196.27;;;5.56;91.45
58967;BME280;44744;51.894;5.080;2024-03-02T08:15:49;100198.55;;;5.61;91.29
58967;BME280;44744;51.894;5.080;2024-03-02T08:20:49;100197.10;;;5.66;91.17
58967;BME280;44744;51.894;5.080;2024-03-02T08:25:50;100193.02;;;5.71;91.21
58967;BME280;44744;51.894;5.080;2024-03-02T08:30:50;100187.12;;;5.76;91.09
58967;BME280;44744;51.894;5.080;2024-03-02T08:35:51;100180.23;;;5.81;91.09
58967;BME280;44744;51.894;5.080;2024-03-02T08:40:52;100182.24;;;5.88;90.99
58967;BME280;44744;51.894;5.080;2024-03-02T08:45:52;100188.79;;;5.94;90.99
58967;BME280;44744;51.894;5.080;2024-03-02T08:50:53;100186.81;;;5.99;90.78
58967;BME280;44744;51.894;5.080;2024-03-02T08:55:53;100189.86;;;6.06;90.47
58967;BME280;44744;51.894;5.080;2024-03-02T09:00:55;100192.58;;;6.12;90.31
58967;BME280;44744;51.894;5.080;2024-03-02T09:05:56;100189.77;;;6.19;90.47
58967;BME280;44744;51.894;5.080;2024-03-02T09:10:56;100188.94;;;6.29;89.95
58967;BME280;44744;51.894;5.080;2024-03-02T09:15:57;100196.02;;;6.39;89.58
58967;BME280;44744;51.894;5.080;2024-03-02T09:20:57;100200.13;;;6.49;89.03
58967;BME280;44744;51.894;5.080;2024-03-02T09:25:57;100201.96;;;6.58;88.83
58967;BME280;44744;51.894;5.080;2024-03-02T09:31:00;100204.52;;;6.70;87.90
58967;BME280;44744;51.894;5.080;2024-03-02T09:36:01;100203.41;;;6.82;87.14
58967;BME280;44744;51.894;5.080;2024-03-02T09:41:01;100199.71;;;6.97;86.41
58967;BME280;44744;51.894;5.080;2024-03-02T09:46:03;100196.04;;;7.10;85.75
58967;BME280;44744;51.894;5.080;2024-03-02T09:51:04;100194.75;;;7.22;84.15
58967;BME280;44744;51.894;5.080;2024-03-02T09:56:08;100195.50;;;7.35;83.01
58967;BME280;44744;51.894;5.080;2024-03-02T10:01:08;100200.96;;;7.48;81.98
58967;BME280;44744;51.894;5.080;2024-03-02T10:06:29;100204.56;;;7.60;80.95
58967;BME280;44744;51.894;5.080;2024-03-02T10:11:31;100204.15;;;7.71;79.52
58967;BME280;44744;51.894;5.080;2024-03-02T10:16:39;100195.91;;;7.80;78.30
58967;BME280;44744;51.894;5.080;2024-03-02T10:21:40;100194.06;;;7.92;79.34
58967;BME280;44744;51.894;5.080;2024-03-02T10:26:41;100201.21;;;8.07;79.67
58967;BME280;44744;51.894;5.080;2024-03-02T10:31:44;100188.50;;;8.20;78.67
58967;BME280;44744;51.894;5.080;2024-03-02T10:36:45;100181.59;;;8.30;76.91
58967;BME280;44744;51.894;5.080;2024-03-02T10:41:49;100176.75;;;8.38;76.11
58967;BME280;44744;51.894;5.080;2024-03-02T10:46:52;100169.23;;;8.47;76.39
58967;BME280;44744;51.894;5.080;2024-03-02T10:51:58;100166.65;;;8.58;74.82
58967;BME280;44744;51.894;5.080;2024-03-02T10:56:59;100168.09;;;8.67;73.81
58967;BME280;44744;51.894;5.080;2024-03-02T11:02:01;100159.98;;;8.76;73.22
58967;BME280;44744;51.894;5.080;2024-03-02T11:07:08;100156.80;;;8.85;73.14
58967;BME280;44744;51.894;5.080;2024-03-02T11:12:17;100164.75;;;8.97;72.08
58967;BME280;44744;51.894;5.080;2024-03-02T11:17:19;100157.86;;;9.09;72.08
58967;BME280;44744;51.894;5.080;2024-03-02T11:22:21;100159.86;;;9.20;71.50
58967;BME280;44744;51.894;5.080;2024-03-02T11:32:55;100163.30;;;9.39;70.78
58967;BME280;44744;51.894;5.080;2024-03-02T11:37:55;100150.02;;;9.49;68.71
58967;BME280;44744;51.894;5.080;2024-03-02T11:42:59;100148.23;;;9.55;67.74
58967;BME280;44744;51.894;5.080;2024-03-02T11:48:00;100150.25;;;9.54;67.53
58967;BME280;44744;51.894;5.080;2024-03-02T11:53:01;100142.30;;;9.54;69.18
58967;BME280;44744;51.894;5.080;2024-03-02T11:58:03;100131.25;;;9.61;68.87
58967;BME280;44744;51.894;5.080;2024-03-02T12:03:09;100129.49;;;9.72;68.57
58967;BME280;44744;51.894;5.080;2024-03-02T12:08:12;100115.35;;;9.79;67.92
58967;BME280;44744;51.894;5.080;2024-03-02T12:13:33;100110.55;;;9.84;66.84
58967;BME280;44744;51.894;5.080;2024-03-02T12:18:34;100102.08;;;9.93;66.29
58967;BME280;44744;51.894;5.080;2024-03-02T12:23:38;100093.55;;;9.99;66.49
58967;BME280;44744;51.894;5.080;2024-03-02T12:28:50;100090.52;;;10.11;66.57
58967;BME280;44744;51.894;5.080;2024-03-02T12:33:54;100084.20;;;10.16;64.50
58967;BME280;44744;51.894;5.080;2024-03-02T12:38:57;100068.71;;;10.20;64.76
58967;BME280;44744;51.894;5.080;2024-03-02T12:43:58;100068.35;;;10.31;63.83
58967;BME280;44744;51.894;5.080;2024-03-02T12:49:04;100065.78;;;10.35;63.40
58967;BME280;44744;51.894;5.080;2024-03-02T12:54:08;100061.52;;;10.41;63.30
58967;BME280;44744;51.894;5.080;2024-03-02T12:59:09;100062.59;;;10.46;62.76
58967;BME280;44744;51.894;5.080;2024-03-02T13:04:11;100056.80;;;10.51;63.88
58967;BME280;44744;51.894;5.080;2024-03-02T13:09:11;100054.33;;;10.62;63.99
58967;BME280;44744;51.894;5.080;2024-03-02T13:14:14;100049.40;;;10.69;63.95
58967;BME280;44744;51.894;5.080;2024-03-02T13:19:17;100044.57;;;10.70;62.28
58967;BME280;44744;51.894;5.080;2024-03-02T13:24:19;100037.37;;;10.66;62.43
58967;BME280;44744;51.894;5.080;2024-03-02T13:29:23;100039.81;;;10.69;63.42
58967;BME280;44744;51.894;5.080;2024-03-02T13:34:37;100031.84;;;10.72;63.40
58967;BME280;44744;51.894;5.080;2024-03-02T13:39:38;100033.11;;;10.74;64.05
58967;BME280;44744;51.894;5.080;2024-03-02T13:44:45;100031.75;;;10.73;62.51
